createdAt,value
2019-03-10T00:00:28.004Z,14.53
2019-03-10T00:02:56.490Z,14.30
2019-03-10T00:05:24.960Z,14.67
2019-03-10T00:07:53.448Z,11.77
2019-03-10T00:10:22.001Z,11.90
2019-03-10T00:12:50.505Z,12.53
2019-03-10T00:15:19.024Z,11.90
2019-03-10T00:17:47.537Z,11.43
2019-03-10T00:20:16.010Z,11.17
2019-03-10T00:22:44.539Z,11.77
2019-03-10T00:25:13.017Z,12.03
2019-03-10T00:27:41.584Z,10.27
2019-03-10T00:30:16.024Z,10.90
2019-03-10T00:32:44.626Z,10.90
2019-03-10T00:35:13.540Z,10.40
2019-03-10T00:37:43.125Z,11.03
2019-03-10T00:40:43.460Z,15.47
2019-03-10T00:43:41.923Z,10.10
2019-03-10T00:46:33.139Z,10.60
2019-03-10T00:49:38.068Z,9.93
2019-03-10T00:52:12.716Z,9.57
2019-03-10T00:54:41.389Z,10.00
2019-03-10T00:57:09.929Z,8.93
2019-03-10T00:59:38.418Z,9.63
2019-03-10T01:02:06.878Z,9.33
2019-03-10T01:04:35.364Z,9.23
2019-03-10T01:07:03.842Z,10.07
2019-03-10T01:09:32.320Z,9.07
2019-03-10T01:12:00.783Z,9.13
2019-03-10T01:14:29.299Z,9.00
2019-03-10T01:16:57.820Z,8.50
2019-03-10T01:19:26.316Z,8.67
2019-03-10T01:21:54.767Z,8.83
2019-03-10T01:24:23.253Z,9.70
2019-03-10T01:26:51.752Z,8.60
2019-03-10T01:29:20.608Z,8.73
2019-03-10T01:32:13.141Z,8.20
2019-03-10T01:34:50.968Z,8.40
2019-03-10T01:37:19.434Z,8.30
2019-03-10T01:39:47.975Z,8.33
2019-03-10T01:42:16.464Z,8.80
2019-03-10T01:44:45.029Z,8.27
2019-03-10T01:47:13.535Z,8.43
2019-03-10T01:49:42.014Z,8.37
2019-03-10T01:52:10.481Z,8.13
2019-03-10T01:54:38.945Z,8.40
2019-03-10T01:57:07.460Z,8.40
2019-03-10T01:59:35.936Z,8.07
2019-03-10T02:02:04.483Z,8.00
2019-03-10T02:04:33.099Z,8.23
2019-03-10T02:07:01.653Z,8.23
2019-03-10T02:09:30.236Z,8.17
2019-03-10T02:11:58.823Z,7.93
2019-03-10T02:14:28.270Z,8.00
2019-03-10T02:16:58.625Z,7.80
2019-03-10T02:19:27.504Z,8.03
2019-03-10T02:21:57.866Z,7.40
2019-03-10T02:24:26.444Z,8.47
2019-03-10T02:26:54.920Z,7.80
2019-03-10T02:29:23.788Z,7.47
2019-03-10T02:31:52.311Z,7.50
2019-03-10T02:34:20.906Z,7.87
2019-03-10T02:36:49.602Z,7.60
2019-03-10T02:39:19.139Z,7.37
2019-03-10T02:41:47.724Z,7.43
2019-03-10T02:44:18.004Z,7.57
2019-03-10T02:46:47.458Z,7.20
2019-03-10T02:49:15.967Z,7.50
2019-03-10T02:51:44.552Z,6.80
2019-03-10T02:54:13.033Z,7.40
2019-03-10T02:56:41.489Z,7.10
2019-03-10T02:59:11.079Z,7.50
2019-03-10T03:01:39.829Z,6.53
2019-03-10T03:04:08.390Z,7.07
2019-03-10T03:06:36.977Z,6.43
2019-03-10T03:09:06.517Z,7.00
2019-03-10T03:11:38.232Z,6.43
2019-03-10T03:14:10.759Z,7.00
2019-03-10T03:16:39.289Z,6.53
2019-03-10T03:19:08.080Z,6.73
2019-03-10T03:21:43.185Z,6.87
2019-03-10T03:24:06.788Z,7.60
2019-03-10T03:26:35.363Z,7.00
2019-03-10T03:29:05.691Z,6.93
2019-03-10T03:31:34.209Z,6.90
2019-03-10T03:34:02.772Z,6.97
2019-03-10T03:36:35.751Z,6.30
2019-03-10T03:39:11.595Z,7.20
2019-03-10T03:41:40.190Z,6.30
2019-03-10T03:44:08.995Z,6.77
2019-03-10T03:46:39.298Z,6.80
2019-03-10T03:49:09.520Z,6.60
2019-03-10T03:51:38.556Z,6.77
2019-03-10T03:54:07.049Z,6.50
2019-03-10T03:56:35.559Z,6.67
2019-03-10T03:59:04.091Z,6.80
2019-03-10T04:01:34.275Z,6.30
2019-03-10T04:04:03.088Z,6.43
2019-03-10T04:06:31.781Z,6.40
2019-03-10T04:09:00.461Z,6.47
2019-03-10T04:11:28.897Z,6.30
2019-03-10T04:13:59.255Z,6.13
2019-03-10T04:16:27.735Z,6.90
2019-03-10T04:18:56.310Z,6.23
2019-03-10T04:21:25.117Z,6.73
2019-03-10T04:23:53.678Z,6.10
2019-03-10T04:26:22.193Z,6.20
2019-03-10T04:28:51.585Z,6.03
2019-03-10T04:31:20.049Z,6.30
2019-03-10T04:33:48.856Z,6.10
2019-03-10T04:36:17.308Z,6.13
2019-03-10T04:38:45.935Z,6.07
2019-03-10T04:41:14.480Z,6.20
2019-03-10T04:43:43.292Z,5.97
2019-03-10T04:46:12.843Z,6.23
2019-03-10T04:48:41.489Z,6.20
2019-03-10T04:51:10.041Z,6.23
2019-03-10T04:53:38.621Z,6.33
2019-03-10T04:56:17.780Z,6.33
2019-03-10T04:58:47.875Z,6.07
2019-03-10T05:01:18.314Z,5.97
2019-03-10T05:03:46.784Z,6.10
2019-03-10T05:06:15.295Z,5.87
2019-03-10T05:08:43.976Z,5.87
2019-03-10T05:11:12.663Z,5.87
2019-03-10T05:13:41.348Z,6.47
2019-03-10T05:16:09.819Z,6.17
2019-03-10T05:18:38.363Z,6.00
2019-03-10T05:21:06.829Z,5.90
2019-03-10T05:23:40.219Z,5.90
2019-03-10T05:26:08.691Z,6.63
2019-03-10T05:28:44.676Z,6.17
2019-03-10T05:31:15.029Z,5.90
2019-03-10T05:33:43.505Z,5.90
2019-03-10T05:36:13.601Z,5.80
2019-03-10T05:38:42.340Z,5.80
2019-03-10T05:41:12.073Z,5.80
2019-03-10T05:43:40.504Z,5.87
2019-03-10T05:46:08.980Z,6.00
2019-03-10T05:48:37.780Z,5.87
2019-03-10T05:51:06.386Z,5.50
2019-03-10T05:53:35.067Z,5.80
2019-03-10T05:56:03.752Z,5.87
2019-03-10T05:58:35.095Z,5.97
2019-03-10T06:01:04.688Z,5.77
2019-03-10T06:03:33.497Z,5.10
2019-03-10T06:06:02.493Z,5.83
2019-03-10T06:08:31.058Z,5.53
2019-03-10T06:10:59.864Z,5.53
2019-03-10T06:13:28.551Z,5.73
2019-03-10T06:15:57.057Z,5.67
2019-03-10T06:18:25.522Z,5.20
2019-03-10T06:20:54.299Z,5.80
2019-03-10T06:23:22.984Z,5.13
2019-03-10T06:25:53.316Z,5.03
2019-03-10T06:28:21.994Z,5.10
2019-03-10T06:30:52.300Z,5.50
2019-03-10T06:33:20.995Z,5.37
2019-03-10T06:35:49.562Z,5.30
2019-03-10T06:38:18.173Z,5.40
2019-03-10T06:40:48.696Z,5.50
2019-03-10T06:43:17.387Z,5.70
2019-03-10T06:45:45.945Z,5.40
2019-03-10T06:48:14.423Z,5.43
2019-03-10T06:50:43.221Z,5.00
2019-03-10T06:53:13.731Z,5.53
2019-03-10T06:55:42.224Z,5.50
2019-03-10T06:58:10.808Z,5.40
2019-03-10T07:00:39.388Z,5.13
2019-03-10T07:03:07.874Z,4.80
2019-03-10T07:05:36.789Z,5.40
2019-03-10T07:08:05.243Z,5.37
2019-03-10T07:10:33.837Z,5.90
2019-03-10T07:13:04.343Z,5.27
2019-03-10T07:15:32.643Z,5.97
2019-03-10T07:18:03.143Z,5.40
2019-03-10T07:20:31.449Z,5.20
2019-03-10T07:22:59.905Z,5.30
2019-03-10T07:25:28.428Z,5.73
2019-03-10T07:28:01.694Z,5.57
2019-03-10T07:30:44.117Z,5.33
2019-03-10T07:33:28.944Z,5.23
2019-03-10T07:36:01.886Z,5.30
2019-03-10T07:38:31.955Z,5.77
2019-03-10T07:41:04.968Z,5.37
2019-03-10T07:43:40.916Z,5.37
2019-03-10T07:46:29.367Z,5.07
2019-03-10T07:49:08.676Z,5.60
2019-03-10T07:51:38.847Z,5.50
2019-03-10T07:54:09.684Z,5.07
2019-03-10T07:56:50.348Z,5.27
2019-03-10T07:59:23.308Z,5.07
2019-03-10T08:02:02.774Z,4.87
2019-03-10T08:04:44.975Z,5.30
2019-03-10T08:07:15.174Z,5.63
2019-03-10T08:09:45.372Z,6.07
2019-03-10T08:12:24.712Z,6.10
2019-03-10T08:14:55.184Z,5.73
2019-03-10T08:17:25.377Z,5.47
2019-03-10T08:20:01.739Z,5.27
2019-03-10T08:22:31.987Z,5.20
2019-03-10T08:25:04.808Z,5.23
2019-03-10T08:27:47.386Z,4.90
2019-03-10T08:30:17.684Z,5.27
2019-03-10T08:32:48.139Z,4.77
2019-03-10T08:35:33.579Z,5.00
2019-03-10T08:38:04.228Z,5.03
2019-03-10T08:40:34.517Z,4.70
2019-03-10T08:43:13.810Z,5.00
2019-03-10T08:45:49.796Z,4.70
2019-03-10T08:48:19.903Z,4.50
2019-03-10T08:50:50.129Z,5.17
2019-03-10T08:53:20.233Z,4.97
2019-03-10T08:55:56.694Z,4.50
2019-03-10T08:58:32.623Z,4.80
2019-03-10T09:01:20.838Z,4.30
2019-03-10T09:03:53.146Z,4.27
2019-03-10T09:06:32.777Z,4.50
2019-03-10T09:09:08.651Z,4.23
2019-03-10T09:11:41.818Z,4.90
2019-03-10T09:14:21.016Z,4.00
2019-03-10T09:16:51.154Z,4.33
2019-03-10T09:19:27.338Z,5.20
2019-03-10T09:22:06.675Z,5.20
2019-03-10T09:24:56.431Z,5.17
2019-03-10T09:27:43.341Z,4.33
2019-03-10T09:30:14.038Z,4.40
2019-03-10T09:32:56.209Z,4.57
2019-03-10T09:35:35.358Z,4.50
2019-03-10T09:38:08.526Z,4.30
2019-03-10T09:40:49.376Z,4.60
2019-03-10T09:43:35.080Z,4.27
2019-03-10T09:46:05.738Z,4.20
2019-03-10T09:48:44.788Z,4.20
2019-03-10T09:51:23.752Z,4.20
2019-03-10T09:53:56.828Z,4.40
2019-03-10T09:56:27.087Z,3.93
2019-03-10T09:58:57.302Z,4.20
2019-03-10T10:01:27.524Z,4.37
2019-03-10T10:03:57.671Z,4.27
2019-03-10T10:06:30.905Z,4.27
2019-03-10T10:09:04.900Z,3.90
2019-03-10T10:11:35.299Z,4.07
2019-03-10T10:14:11.100Z,4.13
2019-03-10T10:16:41.253Z,4.00
2019-03-10T10:19:29.513Z,4.17
2019-03-10T10:22:02.344Z,3.90
2019-03-10T10:24:35.899Z,4.17
2019-03-10T10:27:06.121Z,3.97
2019-03-10T10:29:36.408Z,3.77
2019-03-10T10:32:18.409Z,3.60
2019-03-10T10:34:48.503Z,3.93
2019-03-10T10:37:27.575Z,3.70
2019-03-10T10:39:57.789Z,3.93
2019-03-10T10:42:44.295Z,3.30
2019-03-10T10:45:23.756Z,3.80
2019-03-10T10:48:02.988Z,3.47
2019-03-10T10:50:49.697Z,3.10
2019-03-10T10:53:25.637Z,3.60
2019-03-10T10:56:12.338Z,3.30
2019-03-10T10:58:58.945Z,3.07
2019-03-10T11:01:34.900Z,3.43
2019-03-10T11:04:10.793Z,3.40
2019-03-10T11:06:53.089Z,3.20
2019-03-10T11:09:35.465Z,3.10
2019-03-10T11:12:22.108Z,3.20
2019-03-10T11:15:04.273Z,3.20
2019-03-10T11:17:37.465Z,3.00
2019-03-10T11:20:10.559Z,3.57
2019-03-10T11:22:46.643Z,4.13
2019-03-10T11:25:17.475Z,4.00
2019-03-10T11:27:59.679Z,3.50
2019-03-10T11:30:29.773Z,3.50
2019-03-10T11:32:59.991Z,3.43
2019-03-10T11:35:47.616Z,3.60
2019-03-10T11:38:20.569Z,3.40
2019-03-10T11:41:02.599Z,3.00
2019-03-10T11:43:41.745Z,3.30
2019-03-10T11:49:21.226Z,2.90
2019-03-10T11:52:06.361Z,3.13
2019-03-10T11:54:42.234Z,3.30
2019-03-10T11:57:12.348Z,3.07
2019-03-10T11:59:54.739Z,2.80
2019-03-10T12:02:25.866Z,2.90
2019-03-10T12:04:58.909Z,2.90
2019-03-10T12:07:29.002Z,3.40
2019-03-10T12:09:57.586Z,3.37
2019-03-10T12:12:26.195Z,2.50
2019-03-10T12:14:54.888Z,3.27
2019-03-10T12:17:23.574Z,3.00
2019-03-10T12:19:52.330Z,3.10
2019-03-10T12:22:20.939Z,3.00
2019-03-10T12:24:49.705Z,2.83
2019-03-10T12:27:21.690Z,2.73
2019-03-10T12:29:50.193Z,2.60
2019-03-10T12:32:18.760Z,3.30
2019-03-10T12:34:47.282Z,2.40
2019-03-10T12:37:15.861Z,3.33
2019-03-10T12:39:44.329Z,2.70
2019-03-10T12:42:12.835Z,2.70
2019-03-10T12:44:41.304Z,2.50
2019-03-10T12:47:09.781Z,3.03
2019-03-10T12:49:38.273Z,3.60
2019-03-10T12:52:06.737Z,2.87
2019-03-10T12:54:35.250Z,2.63
2019-03-10T12:57:03.798Z,2.30
2019-03-10T12:59:32.285Z,2.50
2019-03-10T13:02:00.839Z,4.53
2019-03-10T13:04:29.353Z,2.17
2019-03-10T13:06:57.820Z,3.27
2019-03-10T13:09:26.366Z,2.37
2019-03-10T13:11:54.907Z,2.80
2019-03-10T13:14:23.497Z,2.10
2019-03-10T13:16:52.071Z,2.30
2019-03-10T13:19:20.656Z,2.23
2019-03-10T13:21:49.544Z,2.27
2019-03-10T13:24:18.083Z,3.70
2019-03-10T13:26:47.038Z,2.50
2019-03-10T13:29:15.641Z,2.30
2019-03-10T13:31:47.418Z,2.23
2019-03-10T13:34:15.948Z,2.37
2019-03-10T13:36:44.449Z,1.70
2019-03-10T13:39:12.937Z,2.30
2019-03-10T13:41:41.417Z,2.20
2019-03-10T13:44:09.900Z,1.70
2019-03-10T13:46:38.430Z,2.40
2019-03-10T13:49:06.940Z,6.07
2019-03-10T13:51:35.554Z,4.00
2019-03-10T13:54:04.027Z,1.70
2019-03-10T13:56:32.483Z,1.97
2019-03-10T13:59:00.998Z,5.27
2019-03-10T14:01:29.591Z,1.77
2019-03-10T14:04:00.096Z,2.20
2019-03-10T14:06:28.381Z,1.70
2019-03-10T14:09:00.189Z,1.83
2019-03-10T14:11:28.763Z,1.87
2019-03-10T14:13:57.344Z,1.80
2019-03-10T14:16:25.818Z,2.77
2019-03-10T14:18:54.314Z,2.13
2019-03-10T14:21:23.028Z,1.80
2019-03-10T14:23:51.525Z,1.70
2019-03-10T14:26:20.055Z,2.27
2019-03-10T14:28:48.588Z,1.70
2019-03-10T14:31:17.187Z,1.57
2019-03-10T14:33:45.807Z,2.03
2019-03-10T14:36:14.329Z,1.67
2019-03-10T14:38:43.094Z,1.80
2019-03-10T14:41:11.613Z,1.70
2019-03-10T14:43:40.101Z,1.67
2019-03-10T14:46:08.790Z,1.77
2019-03-10T14:48:37.258Z,1.93
2019-03-10T14:51:05.715Z,1.60
2019-03-10T14:53:34.222Z,1.90
2019-03-10T14:56:02.731Z,1.63
2019-03-10T14:58:34.257Z,2.53
2019-03-10T15:01:02.715Z,2.10
2019-03-10T15:03:31.201Z,1.40
2019-03-10T15:05:59.708Z,1.63
2019-03-10T15:08:28.232Z,1.70
2019-03-10T15:10:56.776Z,1.60
2019-03-10T15:13:25.257Z,1.20
2019-03-10T15:15:53.711Z,2.77
2019-03-10T15:18:22.184Z,1.87
2019-03-10T15:20:51.093Z,1.63
2019-03-10T15:23:19.601Z,2.20
2019-03-10T15:25:48.093Z,3.83
2019-03-10T15:28:16.576Z,1.80
2019-03-10T15:30:45.138Z,2.40
2019-03-10T15:33:14.137Z,2.77
2019-03-10T15:35:42.745Z,3.10
2019-03-10T15:38:11.215Z,4.60
2019-03-10T15:40:39.743Z,4.03
2019-03-10T15:43:08.223Z,2.80
2019-03-10T15:45:36.759Z,2.20
2019-03-10T15:48:05.327Z,3.73
2019-03-10T15:50:35.595Z,4.00
2019-03-10T15:53:04.233Z,2.70
2019-03-10T15:55:32.723Z,2.60
2019-03-10T15:58:03.811Z,3.07
2019-03-10T16:00:31.352Z,3.77
2019-03-10T16:02:59.836Z,7.47
2019-03-10T16:05:30.128Z,10.60
2019-03-10T16:07:58.616Z,13.40
2019-03-10T16:10:27.229Z,10.40
2019-03-10T16:12:55.832Z,12.13
2019-03-10T16:15:30.671Z,10.43
2019-03-10T16:17:59.230Z,15.50
2019-03-10T16:20:27.735Z,12.43
2019-03-10T16:22:56.317Z,20.57
2019-03-10T16:25:24.798Z,18.17
2019-03-10T16:27:53.324Z,16.77
2019-03-10T16:30:23.500Z,28.63
2019-03-10T16:32:52.085Z,45.73
2019-03-10T16:35:22.439Z,80.37
2019-03-10T16:37:51.148Z,44.30
2019-03-10T16:40:20.741Z,43.90
2019-03-10T16:42:49.243Z,38.53
2019-03-10T16:45:23.805Z,32.20
2019-03-10T16:47:52.328Z,30.20
2019-03-10T16:50:22.265Z,26.53
2019-03-10T16:52:50.749Z,23.40
2019-03-10T16:55:19.292Z,22.53
2019-03-10T16:57:47.777Z,20.40
2019-03-10T17:00:19.236Z,19.97
2019-03-10T17:02:47.958Z,19.23
2019-03-10T17:05:23.472Z,19.83
2019-03-10T17:07:52.104Z,19.03
2019-03-10T17:10:22.452Z,17.20
2019-03-10T17:12:50.996Z,18.37
2019-03-10T17:15:21.220Z,16.33
2019-03-10T17:17:49.708Z,16.13
2019-03-10T17:20:19.399Z,16.30
2019-03-10T17:22:48.061Z,16.40
2019-03-10T17:25:17.521Z,16.37
2019-03-10T17:27:46.027Z,15.50
2019-03-10T17:30:21.938Z,14.73
2019-03-10T17:32:50.441Z,15.87
2019-03-10T17:35:19.660Z,14.67
2019-03-10T17:37:48.684Z,14.30
2019-03-10T17:40:21.909Z,14.33
2019-03-10T17:42:50.388Z,14.37
2019-03-10T17:45:21.484Z,13.17
2019-03-10T17:47:49.962Z,13.37
2019-03-10T17:50:18.944Z,13.33
2019-03-10T17:52:47.886Z,13.47
2019-03-10T17:55:23.236Z,13.77
2019-03-10T17:57:51.708Z,12.60
2019-03-10T18:00:22.937Z,12.90
2019-03-10T18:02:51.410Z,12.27
2019-03-10T18:05:20.304Z,12.10
2019-03-10T18:07:49.228Z,12.10
2019-03-10T18:10:18.546Z,12.43
2019-03-10T18:12:47.018Z,11.87
2019-03-10T18:15:17.159Z,11.20
2019-03-10T18:17:45.633Z,11.47
2019-03-10T18:20:22.385Z,11.67
2019-03-10T18:22:50.985Z,11.07
2019-03-10T18:25:19.457Z,11.13
2019-03-10T18:27:48.069Z,10.90
2019-03-10T18:30:19.164Z,10.57
2019-03-10T18:32:47.719Z,11.07
2019-03-10T18:35:16.321Z,10.97
2019-03-10T18:37:44.888Z,10.50
2019-03-10T18:40:19.522Z,10.27
2019-03-10T18:42:51.423Z,10.10
2019-03-10T18:45:20.960Z,10.20
2019-03-10T18:47:49.470Z,9.83
2019-03-10T18:50:19.499Z,9.37
2019-03-10T18:52:47.978Z,10.20
2019-03-10T18:55:17.546Z,9.27
2019-03-10T18:57:46.083Z,9.73
2019-03-10T19:00:17.370Z,8.97
2019-03-10T19:02:45.893Z,10.00
2019-03-10T19:05:14.345Z,9.47
2019-03-10T19:07:44.654Z,9.20
2019-03-10T19:10:14.093Z,9.17
2019-03-10T19:12:42.664Z,8.87
2019-03-10T19:15:13.804Z,7.87
2019-03-10T19:17:42.273Z,8.07
2019-03-10T19:20:13.156Z,8.60
2019-03-10T19:22:41.842Z,7.97
2019-03-10T19:25:14.705Z,8.67
2019-03-10T19:27:43.381Z,7.80
2019-03-10T19:30:18.017Z,8.10
2019-03-10T19:32:46.723Z,7.93
2019-03-10T19:35:15.277Z,8.50
2019-03-10T19:37:43.867Z,8.30
2019-03-10T19:40:20.257Z,7.80
2019-03-10T19:42:48.789Z,7.93
2019-03-10T19:45:19.675Z,7.83
2019-03-10T19:47:48.364Z,7.37
2019-03-10T19:50:19.487Z,12.07
2019-03-10T19:52:48.013Z,7.90
2019-03-10T19:55:16.882Z,7.60
2019-03-10T19:57:45.563Z,7.20
2019-03-10T20:00:18.920Z,6.83
2019-03-10T20:02:47.437Z,6.93
2019-03-10T20:05:15.899Z,7.07
2019-03-10T20:07:45.072Z,6.77
2019-03-10T20:10:19.380Z,6.43
2019-03-10T20:12:47.887Z,6.93
2019-03-10T20:15:20.545Z,7.00
2019-03-10T20:17:49.025Z,6.47
2019-03-10T20:20:22.311Z,6.67
2019-03-10T20:22:50.848Z,5.93
2019-03-10T20:25:19.345Z,6.00
2019-03-10T20:27:48.183Z,8.23
2019-03-10T20:30:21.668Z,6.93
2019-03-10T20:32:50.246Z,6.47
2019-03-10T20:35:18.773Z,5.93
2019-03-10T20:37:47.315Z,6.03
2019-03-10T20:40:22.182Z,6.17
2019-03-10T20:42:50.713Z,6.13
2019-03-10T20:45:19.289Z,5.97
2019-03-10T20:47:47.791Z,6.83
2019-03-10T20:50:18.321Z,7.27
2019-03-10T20:52:46.841Z,7.77
2019-03-10T20:55:15.597Z,9.37
2019-03-10T20:57:44.907Z,7.40
2019-03-10T21:00:27.617Z,7.70
2019-03-10T21:02:56.070Z,7.30
2019-03-10T21:05:24.594Z,9.13
2019-03-10T21:07:53.156Z,7.53
2019-03-10T21:10:23.837Z,7.30
2019-03-10T21:12:52.433Z,6.80
2019-03-10T21:15:26.320Z,6.43
2019-03-10T21:17:54.508Z,7.43
2019-03-10T21:20:25.264Z,6.47
2019-03-10T21:22:53.856Z,7.17
2019-03-10T21:25:26.912Z,8.23
2019-03-10T21:27:55.482Z,7.43
2019-03-10T21:30:29.978Z,11.87
2019-03-10T21:32:58.497Z,8.47
2019-03-10T21:35:26.964Z,6.63
2019-03-10T21:37:55.452Z,7.40
2019-03-10T21:40:27.577Z,8.10
2019-03-10T21:42:56.056Z,6.67
2019-03-10T21:45:24.583Z,6.90
2019-03-10T21:47:53.078Z,8.53
2019-03-10T21:50:21.614Z,11.50
2019-03-10T21:52:50.111Z,7.60
2019-03-10T21:55:19.035Z,8.27
2019-03-10T21:57:47.493Z,10.10
2019-03-10T22:00:20.954Z,8.57
2019-03-10T22:02:49.453Z,8.60
2019-03-10T22:05:18.280Z,9.73
2019-03-10T22:07:46.833Z,9.10
2019-03-10T22:10:26.990Z,9.10
2019-03-10T22:12:48.719Z,10.33
2019-03-10T22:15:18.311Z,9.33
2019-03-10T22:17:46.806Z,9.60
2019-03-10T22:20:17.386Z,8.33
2019-03-10T22:22:49.103Z,7.77
2019-03-10T22:25:16.436Z,7.83
2019-03-10T22:27:46.099Z,8.40
2019-03-10T22:30:19.436Z,9.10
2019-03-10T22:32:48.071Z,7.70
2019-03-10T22:35:16.749Z,7.43
2019-03-10T22:37:45.739Z,9.20
2019-03-10T22:40:17.682Z,7.93
2019-03-10T22:42:46.159Z,10.50
2019-03-10T22:45:19.788Z,12.50
2019-03-10T22:47:49.436Z,12.30
2019-03-10T22:50:18.156Z,10.60
2019-03-10T22:52:46.717Z,15.07
2019-03-10T22:55:15.893Z,14.53
2019-03-10T22:57:44.739Z,15.13
2019-03-10T23:00:25.324Z,16.47
2019-03-10T23:02:53.813Z,15.37
2019-03-10T23:05:22.277Z,18.03
2019-03-10T23:07:50.748Z,14.33
2019-03-10T23:10:19.221Z,12.77
2019-03-10T23:12:47.746Z,13.10
2019-03-10T23:15:16.214Z,11.90
2019-03-10T23:17:44.727Z,12.17
2019-03-10T23:20:14.743Z,12.23
2019-03-10T23:22:43.331Z,11.03
2019-03-10T23:25:11.889Z,11.50
2019-03-10T23:27:40.472Z,9.37
2019-03-10T23:30:14.978Z,11.07
2019-03-10T23:32:43.443Z,12.20
2019-03-10T23:35:13.901Z,10.13
2019-03-10T23:37:42.411Z,11.83
2019-03-10T23:40:15.561Z,10.63
2019-03-10T23:42:44.037Z,10.73
2019-03-10T23:45:14.538Z,9.10
2019-03-10T23:47:43.023Z,12.03
2019-03-10T23:50:14.099Z,9.73
2019-03-10T23:52:42.590Z,9.80
2019-03-10T23:55:12.311Z,10.37
2019-03-10T23:57:40.892Z,10.43
